Kings Creek, North Carolina
Current Conditions -  °F | °C
As of 11:15 AM on Wednesday 22 Oct 2014 (Local Time) from KMRN Reporting Station
Clear Clear  
Wind Chill: 57°   Ceiling: Unl
Heat Index: 57°   Visibility: 10mi
Dew Point: 37°   Wind: 16mph
Humidity: 47%   Direction: 330°NNW
Pressure: 30.16"   Gusts: 22mph
Location:  35.9726°N, 81.5331°W
Report Text: KMRN 221515Z AUTO 33014G19KT 10SM CLR 14/03 A3016 RMK AO2 T01370026
Loading
Personal Weather Stations






























Interactive Weather Map
Tropical Storm Tracking
New forecast layout! Learn more

10-Day Weather Forecast

Advertisements
Track Severe Weather on mobile